sensor_id;sensor_type;location;lat;lon;timestamp;temperature;humidity
40255;DHT22;25973;52.368;4.940;2023-02-28T00:00:18;6.30;99.90
40255;DHT22;25973;52.368;4.940;2023-02-28T00:02:45;6.30;99.90
40255;DHT22;25973;52.368;4.940;2023-02-28T00:05:13;6.30;99.90
40255;DHT22;25973;52.368;4.940;2023-02-28T00:07:40;6.40;99.90
40255;DHT22;25973;52.368;4.940;2023-02-28T00:10:06;6.40;99.90
40255;DHT22;25973;52.368;4.940;2023-02-28T00:12:34;6.40;99.90
40255;DHT22;25973;52.368;4.940;2023-02-28T00:15:00;6.40;99.90
40255;DHT22;25973;52.368;4.940;2023-02-28T00:17:25;6.40;99.90
40255;DHT22;25973;52.368;4.940;2023-02-28T00:19:51;6.40;99.90
40255;DHT22;25973;52.368;4.940;2023-02-28T00:22:19;6.40;99.90
40255;DHT22;25973;52.368;4.940;2023-02-28T00:24:45;6.40;99.90
40255;DHT22;25973;52.368;4.940;2023-02-28T00:27:11;6.40;99.90
40255;DHT22;25973;52.368;4.940;2023-02-28T00:29:37;6.40;99.90
40255;DHT22;25973;52.368;4.940;2023-02-28T00:32:03;6.50;99.90
40255;DHT22;25973;52.368;4.940;2023-02-28T00:34:29;6.50;99.90
40255;DHT22;25973;52.368;4.940;2023-02-28T00:36:54;6.40;99.90
40255;DHT22;25973;52.368;4.940;2023-02-28T00:39:20;6.50;99.90
40255;DHT22;25973;52.368;4.940;2023-02-28T00:41:45;6.40;99.90
40255;DHT22;25973;52.368;4.940;2023-02-28T00:44:11;6.40;99.90
40255;DHT22;25973;52.368;4.940;2023-02-28T00:46:37;6.40;99.90
40255;DHT22;25973;52.368;4.940;2023-02-28T00:49:02;6.50;99.90
40255;DHT22;25973;52.368;4.940;2023-02-28T00:51:28;6.50;99.90
40255;DHT22;25973;52.368;4.940;2023-02-28T00:53:54;6.50;99.90
40255;DHT22;25973;52.368;4.940;2023-02-28T00:56:20;6.50;99.90
40255;DHT22;25973;52.368;4.940;2023-02-28T00:58:46;6.50;99.90
40255;DHT22;25973;52.368;4.940;2023-02-28T01:01:11;6.40;99.90
40255;DHT22;25973;52.368;4.940;2023-02-28T01:03:37;6.50;99.90
40255;DHT22;25973;52.368;4.940;2023-02-28T01:06:02;6.40;99.90
40255;DHT22;25973;52.368;4.940;2023-02-28T01:08:28;6.40;99.90
40255;DHT22;25973;52.368;4.940;2023-02-28T01:10:54;6.50;99.90
40255;DHT22;25973;52.368;4.940;2023-02-28T01:13:20;6.50;99.90
40255;DHT22;25973;52.368;4.940;2023-02-28T01:15:50;6.50;99.90
40255;DHT22;25973;52.368;4.940;2023-02-28T01:18:16;6.50;99.90
40255;DHT22;25973;52.368;4.940;2023-02-28T01:20:42;6.50;99.90
40255;DHT22;25973;52.368;4.940;2023-02-28T01:23:07;6.50;99.90
40255;DHT22;25973;52.368;4.940;2023-02-28T01:25:36;6.50;99.90
40255;DHT22;25973;52.368;4.940;2023-02-28T01:28:02;6.50;99.90
40255;DHT22;25973;52.368;4.940;2023-02-28T01:30:27;6.50;99.90
40255;DHT22;25973;52.368;4.940;2023-02-28T01:32:53;6.50;99.90
40255;DHT22;25973;52.368;4.940;2023-02-28T01:35:19;6.50;99.90
40255;DHT22;25973;52.368;4.940;2023-02-28T01:37:44;6.50;99.90
40255;DHT22;25973;52.368;4.940;2023-02-28T01:40:11;6.60;99.90
40255;DHT22;25973;52.368;4.940;2023-02-28T01:42:37;6.50;99.90
40255;DHT22;25973;52.368;4.940;2023-02-28T01:45:22;6.50;99.90
40255;DHT22;25973;52.368;4.940;2023-02-28T01:47:52;6.50;99.90
40255;DHT22;25973;52.368;4.940;2023-02-28T01:50:22;6.50;99.90
40255;DHT22;25973;52.368;4.940;2023-02-28T01:52:49;6.60;99.90
40255;DHT22;25973;52.368;4.940;2023-02-28T01:55:17;6.60;99.90
40255;DHT22;25973;52.368;4.940;2023-02-28T01:57:47;6.60;99.90
40255;DHT22;25973;52.368;4.940;2023-02-28T02:00:16;6.60;99.90
40255;DHT22;25973;52.368;4.940;2023-02-28T02:02:44;6.60;99.90
40255;DHT22;25973;52.368;4.940;2023-02-28T02:05:15;6.60;99.90
40255;DHT22;25973;52.368;4.940;2023-02-28T02:07:43;6.60;99.90
40255;DHT22;25973;52.368;4.940;2023-02-28T02:10:14;6.60;99.90
40255;DHT22;25973;52.368;4.940;2023-02-28T02:18:09;6.60;99.90
40255;DHT22;25973;52.368;4.940;2023-02-28T02:23:34;6.70;99.90
40255;DHT22;25973;52.368;4.940;2023-02-28T02:26:27;6.70;99.90
40255;DHT22;25973;52.368;4.940;2023-02-28T02:40:02;6.70;99.90
40255;DHT22;25973;52.368;4.940;2023-02-28T02:45:32;6.80;99.90
40255;DHT22;25973;52.368;4.940;2023-02-28T02:48:04;6.80;99.90
40255;DHT22;25973;52.368;4.940;2023-02-28T02:50:38;6.80;99.90
40255;DHT22;25973;52.368;4.940;2023-02-28T02:53:07;6.70;99.90
40255;DHT22;25973;52.368;4.940;2023-02-28T02:55:38;6.70;99.90
40255;DHT22;25973;52.368;4.940;2023-02-28T02:58:08;6.60;99.90
40255;DHT22;25973;52.368;4.940;2023-02-28T03:00:39;6.50;99.90
40255;DHT22;25973;52.368;4.940;2023-02-28T03:03:08;6.50;99.90
40255;DHT22;25973;52.368;4.940;2023-02-28T03:05:41;6.50;99.90
40255;DHT22;25973;52.368;4.940;2023-02-28T03:08:09;6.40;99.90
40255;DHT22;25973;52.368;4.940;2023-02-28T03:10:38;6.30;99.90
40255;DHT22;25973;52.368;4.940;2023-02-28T03:23:41;6.40;99.90
40255;DHT22;25973;52.368;4.940;2023-02-28T03:26:13;6.40;99.90
40255;DHT22;25973;52.368;4.940;2023-02-28T03:28:58;6.40;99.90
40255;DHT22;25973;52.368;4.940;2023-02-28T03:31:33;6.40;99.90
40255;DHT22;25973;52.368;4.940;2023-02-28T03:36:39;6.30;99.90
40255;DHT22;25973;52.368;4.940;2023-02-28T03:39:17;6.10;99.90
40255;DHT22;25973;52.368;4.940;2023-02-28T03:41:56;6.00;99.90
40255;DHT22;25973;52.368;4.940;2023-02-28T03:44:28;5.90;99.90
40255;DHT22;25973;52.368;4.940;2023-02-28T03:47:14;5.80;99.90
40255;DHT22;25973;52.368;4.940;2023-02-28T03:49:58;5.70;99.90
40255;DHT22;25973;52.368;4.940;2023-02-28T03:52:27;5.70;99.90
40255;DHT22;25973;52.368;4.940;2023-02-28T03:54:56;5.60;99.90
40255;DHT22;25973;52.368;4.940;2023-02-28T03:57:58;5.50;99.90
40255;DHT22;25973;52.368;4.940;2023-02-28T04:00:37;5.40;99.90
40255;DHT22;25973;52.368;4.940;2023-02-28T04:03:04;5.40;99.90
40255;DHT22;25973;52.368;4.940;2023-02-28T04:05:30;5.40;99.90
40255;DHT22;25973;52.368;4.940;2023-02-28T04:08:07;5.30;99.90
40255;DHT22;25973;52.368;4.940;2023-02-28T04:10:33;5.30;99.90
40255;DHT22;25973;52.368;4.940;2023-02-28T04:12:59;5.30;99.90
40255;DHT22;25973;52.368;4.940;2023-02-28T04:15:24;5.30;99.90
40255;DHT22;25973;52.368;4.940;2023-02-28T04:17:50;5.30;99.90
40255;DHT22;25973;52.368;4.940;2023-02-28T04:20:16;5.40;99.90
40255;DHT22;25973;52.368;4.940;2023-02-28T04:22:41;5.40;99.90
40255;DHT22;25973;52.368;4.940;2023-02-28T04:25:07;5.50;99.90
40255;DHT22;25973;52.368;4.940;2023-02-28T04:27:33;5.40;99.90
40255;DHT22;25973;52.368;4.940;2023-02-28T04:29:59;5.40;99.90
40255;DHT22;25973;52.368;4.940;2023-02-28T04:32:25;5.30;99.90
40255;DHT22;25973;52.368;4.940;2023-02-28T04:34:50;5.30;99.90
40255;DHT22;25973;52.368;4.940;2023-02-28T04:37:16;5.20;99.90
40255;DHT22;25973;52.368;4.940;2023-02-28T04:39:41;5.20;99.90
40255;DHT22;25973;52.368;4.940;2023-02-28T04:42:07;5.20;99.90
40255;DHT22;25973;52.368;4.940;2023-02-28T04:44:32;5.20;99.90
40255;DHT22;25973;52.368;4.940;2023-02-28T04:46:58;5.20;99.90
40255;DHT22;25973;52.368;4.940;2023-02-28T04:49:24;5.20;99.90
40255;DHT22;25973;52.368;4.940;2023-02-28T04:51:49;5.10;99.90
40255;DHT22;25973;52.368;4.940;2023-02-28T04:54:15;5.10;99.90
40255;DHT22;25973;52.368;4.940;2023-02-28T04:56:41;5.10;99.90
40255;DHT22;25973;52.368;4.940;2023-02-28T04:59:07;5.00;99.90
40255;DHT22;25973;52.368;4.940;2023-02-28T05:01:33;5.10;99.90
40255;DHT22;25973;52.368;4.940;2023-02-28T05:04:01;5.10;99.90
40255;DHT22;25973;52.368;4.940;2023-02-28T05:06:28;5.10;99.90
40255;DHT22;25973;52.368;4.940;2023-02-28T05:08:54;5.10;99.90
40255;DHT22;25973;52.368;4.940;2023-02-28T05:11:28;5.10;99.90
40255;DHT22;25973;52.368;4.940;2023-02-28T05:14:04;5.10;99.90
40255;DHT22;25973;52.368;4.940;2023-02-28T05:16:30;5.10;99.90
40255;DHT22;25973;52.368;4.940;2023-02-28T05:18:56;5.20;99.90
40255;DHT22;25973;52.368;4.940;2023-02-28T05:21:34;5.20;99.90
40255;DHT22;25973;52.368;4.940;2023-02-28T05:24:05;5.20;99.90
40255;DHT22;25973;52.368;4.940;2023-02-28T05:26:34;5.20;99.90
40255;DHT22;25973;52.368;4.940;2023-02-28T05:29:00;5.20;99.90
40255;DHT22;25973;52.368;4.940;2023-02-28T05:31:26;5.20;99.90
40255;DHT22;25973;52.368;4.940;2023-02-28T05:33:52;5.20;99.90
40255;DHT22;25973;52.368;4.940;2023-02-28T05:36:17;5.20;99.90
40255;DHT22;25973;52.368;4.940;2023-02-28T05:38:46;5.20;99.90
40255;DHT22;25973;52.368;4.940;2023-02-28T05:41:12;5.20;99.90
40255;DHT22;25973;52.368;4.940;2023-02-28T05:43:37;5.10;99.90
40255;DHT22;25973;52.368;4.940;2023-02-28T05:46:08;5.00;99.90
40255;DHT22;25973;52.368;4.940;2023-02-28T05:48:35;4.90;99.90
40255;DHT22;25973;52.368;4.940;2023-02-28T05:51:01;4.80;99.90
40255;DHT22;25973;52.368;4.940;2023-02-28T05:53:27;4.70;99.90
40255;DHT22;25973;52.368;4.940;2023-02-28T05:55:53;4.60;99.90
40255;DHT22;25973;52.368;4.940;2023-02-28T05:58:19;4.50;99.90
40255;DHT22;25973;52.368;4.940;2023-02-28T06:00:44;4.50;99.90
40255;DHT22;25973;52.368;4.940;2023-02-28T06:03:10;4.40;99.90
40255;DHT22;25973;52.368;4.940;2023-02-28T06:05:36;4.40;99.90
40255;DHT22;25973;52.368;4.940;2023-02-28T06:08:01;4.40;99.90
40255;DHT22;25973;52.368;4.940;2023-02-28T06:10:27;4.40;99.90
40255;DHT22;25973;52.368;4.940;2023-02-28T06:12:52;4.50;99.90
40255;DHT22;25973;52.368;4.940;2023-02-28T06:15:18;4.50;99.90
40255;DHT22;25973;52.368;4.940;2023-02-28T06:17:44;4.50;99.90
40255;DHT22;25973;52.368;4.940;2023-02-28T06:20:11;4.60;99.90
40255;DHT22;25973;52.368;4.940;2023-02-28T06:22:39;4.50;99.90
40255;DHT22;25973;52.368;4.940;2023-02-28T06:25:06;4.50;99.90
40255;DHT22;25973;52.368;4.940;2023-02-28T06:27:33;4.40;99.90
40255;DHT22;25973;52.368;4.940;2023-02-28T06:29:58;4.30;99.90
40255;DHT22;25973;52.368;4.940;2023-02-28T06:32:24;4.20;99.90
40255;DHT22;25973;52.368;4.940;2023-02-28T06:34:50;4.10;99.90
40255;DHT22;25973;52.368;4.940;2023-02-28T06:37:17;4.10;99.90
40255;DHT22;25973;52.368;4.940;2023-02-28T06:39:42;4.10;99.90
40255;DHT22;25973;52.368;4.940;2023-02-28T06:42:08;4.10;99.90
40255;DHT22;25973;52.368;4.940;2023-02-28T06:44:34;4.00;99.90
40255;DHT22;25973;52.368;4.940;2023-02-28T06:47:04;3.90;99.90
40255;DHT22;25973;52.368;4.940;2023-02-28T06:49:31;3.90;99.90
40255;DHT22;25973;52.368;4.940;2023-02-28T06:51:57;3.80;99.90
40255;DHT22;25973;52.368;4.940;2023-02-28T06:54:23;3.70;99.90
40255;DHT22;25973;52.368;4.940;2023-02-28T06:56:48;3.60;99.90
40255;DHT22;25973;52.368;4.940;2023-02-28T06:59:14;3.50;99.90
40255;DHT22;25973;52.368;4.940;2023-02-28T07:01:40;3.50;99.90
40255;DHT22;25973;52.368;4.940;2023-02-28T07:04:06;3.40;99.90
40255;DHT22;25973;52.368;4.940;2023-02-28T07:06:32;3.40;99.90
40255;DHT22;25973;52.368;4.940;2023-02-28T07:08:58;3.40;99.90
40255;DHT22;25973;52.368;4.940;2023-02-28T07:11:25;3.30;99.90
40255;DHT22;25973;52.368;4.940;2023-02-28T07:13:55;3.20;99.90
40255;DHT22;25973;52.368;4.940;2023-02-28T07:16:22;3.20;99.90
40255;DHT22;25973;52.368;4.940;2023-02-28T07:18:47;3.20;99.90
40255;DHT22;25973;52.368;4.940;2023-02-28T07:21:13;3.20;99.90
40255;DHT22;25973;52.368;4.940;2023-02-28T07:23:40;3.10;99.90
40255;DHT22;25973;52.368;4.940;2023-02-28T07:26:06;3.10;99.90
40255;DHT22;25973;52.368;4.940;2023-02-28T07:28:32;3.10;99.90
40255;DHT22;25973;52.368;4.940;2023-02-28T07:31:03;3.10;99.90
40255;DHT22;25973;52.368;4.940;2023-02-28T07:33:29;3.10;99.90
40255;DHT22;25973;52.368;4.940;2023-02-28T07:36:01;3.00;99.90
40255;DHT22;25973;52.368;4.940;2023-02-28T07:38:26;3.00;99.90
40255;DHT22;25973;52.368;4.940;2023-02-28T07:40:52;2.90;99.90
40255;DHT22;25973;52.368;4.940;2023-02-28T07:43:17;3.00;99.90
40255;DHT22;25973;52.368;4.940;2023-02-28T07:45:43;3.00;99.90
40255;DHT22;25973;52.368;4.940;2023-02-28T07:48:09;3.10;99.90
40255;DHT22;25973;52.368;4.940;2023-02-28T07:50:38;3.10;99.90
40255;DHT22;25973;52.368;4.940;2023-02-28T07:53:03;3.20;99.90
40255;DHT22;25973;52.368;4.940;2023-02-28T07:55:29;3.20;99.90
40255;DHT22;25973;52.368;4.940;2023-02-28T07:57:56;3.20;99.90
40255;DHT22;25973;52.368;4.940;2023-02-28T08:00:22;3.20;99.90
40255;DHT22;25973;52.368;4.940;2023-02-28T08:02:48;3.20;99.90
40255;DHT22;25973;52.368;4.940;2023-02-28T08:05:14;3.20;99.90
40255;DHT22;25973;52.368;4.940;2023-02-28T08:07:40;3.30;99.90
40255;DHT22;25973;52.368;4.940;2023-02-28T08:10:06;3.40;99.90
40255;DHT22;25973;52.368;4.940;2023-02-28T08:12:32;3.40;99.90
40255;DHT22;25973;52.368;4.940;2023-02-28T08:14:57;3.50;99.90
40255;DHT22;25973;52.368;4.940;2023-02-28T08:17:23;3.50;99.90
40255;DHT22;25973;52.368;4.940;2023-02-28T08:19:48;3.60;99.90
40255;DHT22;25973;52.368;4.940;2023-02-28T08:22:14;3.60;99.90
40255;DHT22;25973;52.368;4.940;2023-02-28T08:24:41;3.60;99.90
40255;DHT22;25973;52.368;4.940;2023-02-28T08:27:08;3.70;99.90
40255;DHT22;25973;52.368;4.940;2023-02-28T08:29:34;3.70;99.90
40255;DHT22;25973;52.368;4.940;2023-02-28T08:32:01;3.80;99.90
40255;DHT22;25973;52.368;4.940;2023-02-28T08:34:27;3.90;99.90
40255;DHT22;25973;52.368;4.940;2023-02-28T08:36:52;3.90;99.90
40255;DHT22;25973;52.368;4.940;2023-02-28T08:39:18;3.90;99.90
40255;DHT22;25973;52.368;4.940;2023-02-28T08:41:45;3.90;99.90
40255;DHT22;25973;52.368;4.940;2023-02-28T08:44:10;4.00;99.90
40255;DHT22;25973;52.368;4.940;2023-02-28T08:46:36;4.10;99.90
40255;DHT22;25973;52.368;4.940;2023-02-28T08:49:01;4.20;99.90
40255;DHT22;25973;52.368;4.940;2023-02-28T08:51:28;4.30;99.90
40255;DHT22;25973;52.368;4.940;2023-02-28T08:53:56;4.40;99.90
40255;DHT22;25973;52.368;4.940;2023-02-28T08:56:23;4.50;99.90
40255;DHT22;25973;52.368;4.940;2023-02-28T08:58:49;4.50;99.90
40255;DHT22;25973;52.368;4.940;2023-02-28T09:01:21;4.70;99.90
40255;DHT22;25973;52.368;4.940;2023-02-28T09:03:48;4.70;99.90
40255;DHT22;25973;52.368;4.940;2023-02-28T09:06:15;4.80;99.90
40255;DHT22;25973;52.368;4.940;2023-02-28T09:08:41;4.80;99.90
40255;DHT22;25973;52.368;4.940;2023-02-28T09:11:08;4.90;99.90
40255;DHT22;25973;52.368;4.940;2023-02-28T09:13:34;5.00;99.90
40255;DHT22;25973;52.368;4.940;2023-02-28T09:16:01;5.00;99.90
40255;DHT22;25973;52.368;4.940;2023-02-28T09:18:28;5.10;99.90
40255;DHT22;25973;52.368;4.940;2023-02-28T09:20:53;5.10;99.90
40255;DHT22;25973;52.368;4.940;2023-02-28T09:23:19;5.20;99.90
40255;DHT22;25973;52.368;4.940;2023-02-28T09:25:50;5.30;99.90
40255;DHT22;25973;52.368;4.940;2023-02-28T09:28:16;5.30;99.90
40255;DHT22;25973;52.368;4.940;2023-02-28T09:30:44;5.30;99.90
40255;DHT22;25973;52.368;4.940;2023-02-28T09:33:10;5.40;99.90
40255;DHT22;25973;52.368;4.940;2023-02-28T09:35:36;5.40;99.90
40255;DHT22;25973;52.368;4.940;2023-02-28T09:38:03;5.50;99.90
40255;DHT22;25973;52.368;4.940;2023-02-28T09:40:30;5.40;99.90
40255;DHT22;25973;52.368;4.940;2023-02-28T09:42:57;5.40;99.90
40255;DHT22;25973;52.368;4.940;2023-02-28T09:45:36;5.40;99.90
40255;DHT22;25973;52.368;4.940;2023-02-28T09:48:17;5.40;99.90
40255;DHT22;25973;52.368;4.940;2023-02-28T09:50:52;5.40;99.90
40255;DHT22;25973;52.368;4.940;2023-02-28T09:53:35;5.40;99.90
40255;DHT22;25973;52.368;4.940;2023-02-28T09:56:22;5.30;99.90
40255;DHT22;25973;52.368;4.940;2023-02-28T09:59:01;5.30;99.90
40255;DHT22;25973;52.368;4.940;2023-02-28T10:06:53;4.90;99.90
40255;DHT22;25973;52.368;4.940;2023-02-28T10:09:29;4.70;99.90
40255;DHT22;25973;52.368;4.940;2023-02-28T10:12:02;4.50;99.90
40255;DHT22;25973;52.368;4.940;2023-02-28T10:14:30;4.40;99.90
40255;DHT22;25973;52.368;4.940;2023-02-28T10:17:08;4.40;99.90
40255;DHT22;25973;52.368;4.940;2023-02-28T10:22:24;4.50;99.90
40255;DHT22;25973;52.368;4.940;2023-02-28T10:24:53;4.50;99.90
40255;DHT22;25973;52.368;4.940;2023-02-28T10:27:21;4.60;99.90
40255;DHT22;25973;52.368;4.940;2023-02-28T10:29:53;4.70;99.90
40255;DHT22;25973;52.368;4.940;2023-02-28T10:32:31;4.60;99.90
40255;DHT22;25973;52.368;4.940;2023-02-28T10:35:01;4.60;99.90
40255;DHT22;25973;52.368;4.940;2023-02-28T10:37:32;4.60;99.90
40255;DHT22;25973;52.368;4.940;2023-02-28T10:40:04;4.60;99.90
40255;DHT22;25973;52.368;4.940;2023-02-28T10:42:32;4.70;99.90
40255;DHT22;25973;52.368;4.940;2023-02-28T10:47:55;4.70;99.90
40255;DHT22;25973;52.368;4.940;2023-02-28T10:58:51;4.90;99.90
40255;DHT22;25973;52.368;4.940;2023-02-28T11:01:23;5.10;99.90
40255;DHT22;25973;52.368;4.940;2023-02-28T11:03:50;5.20;99.90
40255;DHT22;25973;52.368;4.940;2023-02-28T11:06:19;5.30;99.90
40255;DHT22;25973;52.368;4.940;2023-02-28T11:08:48;5.40;99.90
40255;DHT22;25973;52.368;4.940;2023-02-28T11:11:15;5.50;99.90
40255;DHT22;25973;52.368;4.940;2023-02-28T11:13:42;5.60;99.90
40255;DHT22;25973;52.368;4.940;2023-02-28T11:16:11;5.80;99.90
40255;DHT22;25973;52.368;4.940;2023-02-28T11:18:54;5.80;99.90
40255;DHT22;25973;52.368;4.940;2023-02-28T11:21:29;5.90;99.90
40255;DHT22;25973;52.368;4.940;2023-02-28T11:24:04;5.90;99.90
40255;DHT22;25973;52.368;4.940;2023-02-28T11:26:42;5.90;99.90
40255;DHT22;25973;52.368;4.940;2023-02-28T11:29:27;6.00;99.90
40255;DHT22;25973;52.368;4.940;2023-02-28T11:32:09;5.90;99.90
40255;DHT22;25973;52.368;4.940;2023-02-28T11:34:37;5.90;99.90
40255;DHT22;25973;52.368;4.940;2023-02-28T11:37:04;5.80;99.90
40255;DHT22;25973;52.368;4.940;2023-02-28T11:39:32;5.90;99.90
40255;DHT22;25973;52.368;4.940;2023-02-28T11:42:19;5.90;99.90
40255;DHT22;25973;52.368;4.940;2023-02-28T11:47:55;6.00;99.90
40255;DHT22;25973;52.368;4.940;2023-02-28T11:53:05;5.90;99.90
40255;DHT22;25973;52.368;4.940;2023-02-28T12:01:35;6.00;99.90
40255;DHT22;25973;52.368;4.940;2023-02-28T12:09:55;5.80;99.90
40255;DHT22;25973;52.368;4.940;2023-02-28T12:20:53;5.80;99.90
40255;DHT22;25973;52.368;4.940;2023-02-28T12:28:34;5.70;99.90
40255;DHT22;25973;52.368;4.940;2023-02-28T12:31:22;5.70;99.90
40255;DHT22;25973;52.368;4.940;2023-02-28T12:33:55;5.70;99.90
40255;DHT22;25973;52.368;4.940;2023-02-28T12:36:22;5.70;99.90
40255;DHT22;25973;52.368;4.940;2023-02-28T12:38:54;5.80;99.90
40255;DHT22;25973;52.368;4.940;2023-02-28T12:44:01;5.80;99.90
40255;DHT22;25973;52.368;4.940;2023-02-28T12:46:42;5.80;99.90
40255;DHT22;25973;52.368;4.940;2023-02-28T12:49:45;5.80;99.90
40255;DHT22;25973;52.368;4.940;2023-02-28T12:52:19;5.70;99.90
40255;DHT22;25973;52.368;4.940;2023-02-28T12:55:21;5.70;99.90
40255;DHT22;25973;52.368;4.940;2023-02-28T13:00:23;5.80;99.90
40255;DHT22;25973;52.368;4.940;2023-02-28T13:03:19;5.80;99.90
40255;DHT22;25973;52.368;4.940;2023-02-28T13:10:46;5.80;99.90
40255;DHT22;25973;52.368;4.940;2023-02-28T13:13:18;5.80;99.90
40255;DHT22;25973;52.368;4.940;2023-02-28T13:18:43;5.90;99.90
40255;DHT22;25973;52.368;4.940;2023-02-28T13:21:23;5.90;99.90
40255;DHT22;25973;52.368;4.940;2023-02-28T13:26:21;6.00;99.90
40255;DHT22;25973;52.368;4.940;2023-02-28T13:28:59;6.00;99.90
40255;DHT22;25973;52.368;4.940;2023-02-28T13:31:25;6.00;99.90
40255;DHT22;25973;52.368;4.940;2023-02-28T13:38:50;6.10;99.90
40255;DHT22;25973;52.368;4.940;2023-02-28T13:41:44;6.20;99.90
40255;DHT22;25973;52.368;4.940;2023-02-28T13:44:16;6.20;99.90
40255;DHT22;25973;52.368;4.940;2023-02-28T13:51:50;6.10;99.90
40255;DHT22;25973;52.368;4.940;2023-02-28T13:54:57;6.10;99.90
40255;DHT22;25973;52.368;4.940;2023-02-28T13:57:41;6.10;99.90
40255;DHT22;25973;52.368;4.940;2023-02-28T14:00:30;6.10;99.90
40255;DHT22;25973;52.368;4.940;2023-02-28T14:09:14;6.10;99.90
40255;DHT22;25973;52.368;4.940;2023-02-28T14:11:43;6.10;99.90
40255;DHT22;25973;52.368;4.940;2023-02-28T14:17:08;6.20;99.90
40255;DHT22;25973;52.368;4.940;2023-02-28T14:19:38;6.20;99.90
40255;DHT22;25973;52.368;4.940;2023-02-28T14:27:31;6.20;99.90
40255;DHT22;25973;52.368;4.940;2023-02-28T14:36:10;6.10;99.90
40255;DHT22;25973;52.368;4.940;2023-02-28T14:38:45;6.10;99.90
40255;DHT22;25973;52.368;4.940;2023-02-28T14:41:21;6.10;99.90
40255;DHT22;25973;52.368;4.940;2023-02-28T14:43:56;6.10;99.90
40255;DHT22;25973;52.368;4.940;2023-02-28T14:46:25;6.20;99.90
40255;DHT22;25973;52.368;4.940;2023-02-28T14:48:52;6.20;99.90
40255;DHT22;25973;52.368;4.940;2023-02-28T14:51:19;6.20;99.90
40255;DHT22;25973;52.368;4.940;2023-02-28T14:53:49;6.20;99.90
40255;DHT22;25973;52.368;4.940;2023-02-28T14:56:34;6.30;99.90
40255;DHT22;25973;52.368;4.940;2023-02-28T14:59:00;6.30;99.90
40255;DHT22;25973;52.368;4.940;2023-02-28T15:01:26;6.40;99.90
40255;DHT22;25973;52.368;4.940;2023-02-28T15:04:06;6.40;99.90
40255;DHT22;25973;52.368;4.940;2023-02-28T15:06:32;6.30;99.90
40255;DHT22;25973;52.368;4.940;2023-02-28T15:09:09;6.30;99.90
40255;DHT22;25973;52.368;4.940;2023-02-28T15:11:37;6.20;99.90
40255;DHT22;25973;52.368;4.940;2023-02-28T15:14:04;6.30;99.90
40255;DHT22;25973;52.368;4.940;2023-02-28T15:16:36;6.30;99.90
40255;DHT22;25973;52.368;4.940;2023-02-28T15:19:08;6.30;99.90
40255;DHT22;25973;52.368;4.940;2023-02-28T15:21:40;6.40;99.90
40255;DHT22;25973;52.368;4.940;2023-02-28T15:26:53;6.20;99.90
40255;DHT22;25973;52.368;4.940;2023-02-28T15:29:23;6.20;99.90
40255;DHT22;25973;52.368;4.940;2023-02-28T15:31:54;6.20;99.90
40255;DHT22;25973;52.368;4.940;2023-02-28T15:34:36;6.20;99.90
40255;DHT22;25973;52.368;4.940;2023-02-28T15:39:50;6.20;99.90
40255;DHT22;25973;52.368;4.940;2023-02-28T15:42:21;6.20;99.90
40255;DHT22;25973;52.368;4.940;2023-02-28T15:44:47;6.20;99.90
40255;DHT22;25973;52.368;4.940;2023-02-28T15:47:19;6.30;99.90
40255;DHT22;25973;52.368;4.940;2023-02-28T15:49:58;6.30;99.90
40255;DHT22;25973;52.368;4.940;2023-02-28T15:55:20;6.30;99.90
40255;DHT22;25973;52.368;4.940;2023-02-28T15:57:49;6.30;99.90
40255;DHT22;25973;52.368;4.940;2023-02-28T16:00:19;6.20;99.90
40255;DHT22;25973;52.368;4.940;2023-02-28T16:02:45;6.20;99.90
40255;DHT22;25973;52.368;4.940;2023-02-28T16:07:41;6.10;99.90
40255;DHT22;25973;52.368;4.940;2023-02-28T16:10:08;6.20;99.90
40255;DHT22;25973;52.368;4.940;2023-02-28T16:12:38;6.10;99.90
40255;DHT22;25973;52.368;4.940;2023-02-28T16:15:19;6.10;99.90
40255;DHT22;25973;52.368;4.940;2023-02-28T16:17:45;6.20;99.90
40255;DHT22;25973;52.368;4.940;2023-02-28T16:20:20;6.20;99.90
40255;DHT22;25973;52.368;4.940;2023-02-28T16:22:46;6.20;99.90
40255;DHT22;25973;52.368;4.940;2023-02-28T16:25:20;6.20;99.90
40255;DHT22;25973;52.368;4.940;2023-02-28T16:27:50;6.20;99.90
40255;DHT22;25973;52.368;4.940;2023-02-28T16:30:24;6.10;99.90
40255;DHT22;25973;52.368;4.940;2023-02-28T16:32:51;6.10;99.90
40255;DHT22;25973;52.368;4.940;2023-02-28T16:35:18;6.10;99.90
40255;DHT22;25973;52.368;4.940;2023-02-28T16:37:44;6.10;99.90
40255;DHT22;25973;52.368;4.940;2023-02-28T16:40:15;6.00;99.90
40255;DHT22;25973;52.368;4.940;2023-02-28T16:42:42;6.00;99.90
40255;DHT22;25973;52.368;4.940;2023-02-28T16:45:18;5.90;99.90
40255;DHT22;25973;52.368;4.940;2023-02-28T16:47:45;5.90;99.90
40255;DHT22;25973;52.368;4.940;2023-02-28T16:50:20;5.90;99.90
40255;DHT22;25973;52.368;4.940;2023-02-28T16:52:46;5.90;99.90
40255;DHT22;25973;52.368;4.940;2023-02-28T16:55:13;5.80;99.90
40255;DHT22;25973;52.368;4.940;2023-02-28T16:57:39;5.80;99.90
40255;DHT22;25973;52.368;4.940;2023-02-28T17:00:10;5.80;99.90
40255;DHT22;25973;52.368;4.940;2023-02-28T17:02:36;5.90;99.90
40255;DHT22;25973;52.368;4.940;2023-02-28T17:05:02;5.80;99.90
40255;DHT22;25973;52.368;4.940;2023-02-28T17:07:27;5.80;99.90
40255;DHT22;25973;52.368;4.940;2023-02-28T17:09:53;5.90;99.90
40255;DHT22;25973;52.368;4.940;2023-02-28T17:12:18;5.80;99.90
40255;DHT22;25973;52.368;4.940;2023-02-28T17:14:44;5.80;99.90
40255;DHT22;25973;52.368;4.940;2023-02-28T17:17:18;5.80;99.90
40255;DHT22;25973;52.368;4.940;2023-02-28T17:19:45;5.80;99.90
40255;DHT22;25973;52.368;4.940;2023-02-28T17:22:10;5.80;99.90
40255;DHT22;25973;52.368;4.940;2023-02-28T17:24:36;5.70;99.90
40255;DHT22;25973;52.368;4.940;2023-02-28T17:27:02;5.70;99.90
40255;DHT22;25973;52.368;4.940;2023-02-28T17:29:28;5.70;99.90
40255;DHT22;25973;52.368;4.940;2023-02-28T17:31:54;5.60;99.90
40255;DHT22;25973;52.368;4.940;2023-02-28T17:34:20;5.60;99.90
40255;DHT22;25973;52.368;4.940;2023-02-28T17:36:48;5.60;99.90
40255;DHT22;25973;52.368;4.940;2023-02-28T17:39:14;5.60;99.90
40255;DHT22;25973;52.368;4.940;2023-02-28T17:41:45;5.60;99.90
40255;DHT22;25973;52.368;4.940;2023-02-28T17:44:11;5.60;99.90
40255;DHT22;25973;52.368;4.940;2023-02-28T17:46:37;5.60;99.90
40255;DHT22;25973;52.368;4.940;2023-02-28T17:49:03;5.50;99.90
40255;DHT22;25973;52.368;4.940;2023-02-28T17:51:29;5.50;99.90
40255;DHT22;25973;52.368;4.940;2023-02-28T17:53:55;5.50;99.90
40255;DHT22;25973;52.368;4.940;2023-02-28T17:56:22;5.50;99.90
40255;DHT22;25973;52.368;4.940;2023-02-28T17:58:49;5.50;99.90
40255;DHT22;25973;52.368;4.940;2023-02-28T18:01:15;5.50;99.90
40255;DHT22;25973;52.368;4.940;2023-02-28T18:03:41;5.50;99.90
40255;DHT22;25973;52.368;4.940;2023-02-28T18:06:09;5.50;99.90
40255;DHT22;25973;52.368;4.940;2023-02-28T18:08:38;5.50;99.90
40255;DHT22;25973;52.368;4.940;2023-02-28T18:11:04;5.40;99.90
40255;DHT22;25973;52.368;4.940;2023-02-28T18:13:29;5.40;99.90
40255;DHT22;25973;52.368;4.940;2023-02-28T18:15:55;5.40;99.90
40255;DHT22;25973;52.368;4.940;2023-02-28T18:18:21;5.40;99.90
40255;DHT22;25973;52.368;4.940;2023-02-28T18:20:47;5.40;99.90